Time;durP1;ratioP1;P1;durP2;ratioP2;P2;SDS_P1;SDS_P2;PMS_P1;PMS_P2;Temp;Humidity;BMP_temperature;BMP_pressure;BME280_temperature;BME280_humidity;BME280_pressure;Samples;Min_cycle;Max_cycle;Signal;HPM_P1;HPM_P2
2023/08/09 00:01:45;;;;;;;4.20;1.10;;;;;;;12.92;100.00;100485.56;6103562;28;20103;-65
2023/08/09 00:04:40;;;;;;;2.20;1.10;;;;;;;12.99;100.00;100495.34;6100361;28;20024;-65
2023/08/09 00:07:35;;;;;;;2.57;1.00;;;;;;;12.81;100.00;100478.72;6100413;28;20074;-65
2023/08/09 00:10:31;;;;;;;2.33;1.17;;;;;;;12.79;100.00;100474.56;6100176;28;20033;-65
2023/08/09 00:13:26;;;;;;;3.35;1.00;;;;;;;12.88;100.00;100495.69;6100211;28;20049;-65
2023/08/09 00:16:21;;;;;;;2.13;1.10;;;;;;;12.80;100.00;100493.03;6105249;28;20594;-65
2023/08/09 00:19:16;;;;;;;4.13;0.95;;;;;;;12.81;100.00;100489.38;6103990;28;20035;-65
2023/08/09 00:22:12;;;;;;;1.60;0.90;;;;;;;12.82;100.00;100485.72;6097238;28;20036;-65
2023/08/09 00:25:09;;;;;;;4.07;1.23;;;;;;;12.69;100.00;100464.06;6099842;28;20028;-65
2023/08/09 00:28:04;;;;;;;1.75;0.88;;;;;;;12.65;100.00;100460.09;6109473;28;20315;-65
2023/08/09 00:30:59;;;;;;;2.65;1.00;;;;;;;12.74;100.00;100474.25;6100296;28;20036;-65
2023/08/09 00:33:55;;;;;;;3.03;1.10;;;;;;;12.59;100.00;100447.47;6099857;28;20047;-65
2023/08/09 00:36:51;;;;;;;3.13;0.93;;;;;;;12.66;100.00;100469.75;6100234;28;20025;-65
2023/08/09 00:39:46;;;;;;;3.75;1.00;;;;;;;12.52;100.00;100457.09;6100238;28;20028;-65
2023/08/09 00:42:42;;;;;;;2.10;0.93;;;;;;;12.65;100.00;100483.22;6100165;28;20367;-65
2023/08/09 00:45:42;;;;;;;2.40;1.13;;;;;;;12.63;100.00;100470.09;6099364;28;20028;-65
2023/08/09 00:48:37;;;;;;;4.82;1.20;;;;;;;12.53;100.00;100438.31;6104266;28;20068;-65
2023/08/09 00:51:33;;;;;;;1.75;0.90;;;;;;;12.59;100.00;100449.28;6115184;28;20110;-65
2023/08/09 00:54:28;;;;;;;2.50;1.00;;;;;;;12.61;100.00;100477.38;6098074;28;20032;-65
2023/08/09 00:57:24;;;;;;;5.35;1.45;;;;;;;12.62;100.00;100480.88;6101433;28;20021;-65
2023/08/09 01:00:19;;;;;;;2.50;1.00;;;;;;;12.48;100.00;100467.22;6098371;28;20357;-65
2023/08/09 01:03:15;;;;;;;2.25;1.17;;;;;;;12.54;100.00;100487.03;6099471;28;20472;-65
2023/08/09 01:06:31;;;;;;;2.45;1.25;;;;;;;12.51;100.00;100498.00;6097994;28;20021;-65
2023/08/09 01:09:36;;;;;;;3.20;1.10;;;;;;;12.46;100.00;100495.00;6109796;28;20033;-65
2023/08/09 01:12:39;;;;;;;2.08;1.20;;;;;;;12.37;100.00;100464.88;6099373;28;20044;-65
2023/08/09 01:15:36;;;;;;;5.10;1.40;;;;;;;12.30;100.00;100468.38;6097750;28;20387;-65
2023/08/09 01:18:32;;;;;;;4.95;1.23;;;;;;;12.29;100.00;100482.66;6106861;28;20747;-65
2023/08/09 01:21:28;;;;;;;2.80;1.05;;;;;;;12.31;100.00;100484.16;6097829;28;20063;-65
2023/08/09 01:24:24;;;;;;;5.95;1.52;;;;;;;12.16;100.00;100455.69;6098563;28;20048;-65
2023/08/09 01:27:19;;;;;;;3.70;1.20;;;;;;;12.20;100.00;100475.66;6099045;28;20017;-65
2023/08/09 01:30:15;;;;;;;6.83;1.50;;;;;;;12.11;100.00;100476.63;6099170;28;20079;-65
2023/08/09 01:33:10;;;;;;;2.80;1.23;;;;;;;12.11;100.00;100479.28;6098868;28;20075;-65
2023/08/09 01:36:19;;;;;;;2.53;1.30;;;;;;;12.01;100.00;100462.66;6098427;28;20044;-65
2023/08/09 01:39:17;;;;;;;1.38;0.80;;;;;;;12.01;100.00;100486.56;6098508;28;20276;-65
2023/08/09 01:42:13;;;;;;;1.73;1.02;;;;;;;11.97;100.00;100493.19;6097881;28;20373;-65
2023/08/09 01:45:11;;;;;;;4.13;1.13;;;;;;;11.90;100.00;100493.81;6096947;28;20025;-65
2023/08/09 01:48:07;;;;;;;3.22;1.50;;;;;;;11.91;100.00;100492.84;6100764;28;20033;-65
2023/08/09 01:51:03;;;;;;;2.28;1.30;;;;;;;11.90;100.00;100512.41;6097458;28;20384;-65
2023/08/09 01:53:58;;;;;;;2.60;1.30;;;;;;;11.81;100.00;100502.75;6097634;28;20033;-65
2023/08/09 01:56:53;;;;;;;4.60;1.40;;;;;;;11.81;100.00;100518.69;6098499;28;20623;-65
2023/08/09 01:59:49;;;;;;;2.40;1.20;;;;;;;11.70;100.00;100508.34;6097762;28;20460;-65
2023/08/09 02:02:49;;;;;;;3.10;1.20;;;;;;;11.69;100.00;100514.63;6097982;28;20115;-65
2023/08/09 02:05:44;;;;;;;2.35;1.10;;;;;;;11.65;100.00;100515.09;6097736;28;20025;-65
2023/08/09 02:08:41;;;;;;;2.80;1.27;;;;;;;11.71;100.00;100519.81;6096848;28;20037;-65
2023/08/09 02:11:36;;;;;;;5.40;1.35;;;;;;;11.63;100.00;100522.41;6098106;28;20028;-65
2023/08/09 02:14:32;;;;;;;3.27;1.40;;;;;;;11.52;100.00;100506.72;6097383;28;20037;-65
2023/08/09 02:17:27;;;;;;;4.47;1.20;;;;;;;11.34;100.00;100490.84;6101744;28;20107;-65
2023/08/09 02:20:22;;;;;;;4.97;1.53;;;;;;;11.30;100.00;100500.13;6102664;28;20040;-65
2023/08/09 02:23:18;;;;;;;3.93;2.00;;;;;;;11.34;100.00;100514.72;6097226;28;20021;-65
2023/08/09 02:26:18;;;;;;;2.77;1.20;;;;;;;11.20;100.00;100497.53;6097761;28;20025;-65
2023/08/09 02:29:13;;;;;;;2.42;1.10;;;;;;;11.05;100.00;100490.31;6098058;28;20421;-65
2023/08/09 02:32:09;;;;;;;3.83;1.50;;;;;;;11.10;100.00;100499.47;6097246;28;20029;-65
2023/08/09 02:35:05;;;;;;;4.23;1.40;;;;;;;10.98;100.00;100499.88;6097223;28;20032;-65
2023/08/09 02:38:00;;;;;;;3.13;1.33;;;;;;;10.84;100.00;100482.69;6100651;28;20275;-65
2023/08/09 02:40:56;;;;;;;2.37;1.07;;;;;;;10.85;100.00;100507.38;6097622;28;20048;-65
2023/08/09 02:43:51;;;;;;;2.72;1.20;;;;;;;10.84;100.00;100511.03;6097008;28;20415;-65
2023/08/09 02:46:46;;;;;;;3.03;1.10;;;;;;;10.68;100.00;100501.94;6097896;28;20065;-65
2023/08/09 02:49:43;;;;;;;2.90;1.70;;;;;;;10.56;100.00;100497.84;6098477;28;20044;-65
2023/08/09 02:52:39;;;;;;;3.13;1.40;;;;;;;10.68;100.00;100517.84;6097508;28;20111;-65
2023/08/09 02:55:34;;;;;;;2.90;1.37;;;;;;;10.45;100.00;100513.97;6096580;28;20033;-65
2023/08/09 02:58:30;;;;;;;5.22;1.50;;;;;;;10.41;100.00;100512.59;6097291;28;20307;-65
2023/08/09 03:01:25;;;;;;;3.70;1.70;;;;;;;10.39;100.00;100513.72;6097390;28;20678;-65
2023/08/09 03:04:21;;;;;;;5.10;1.63;;;;;;;10.41;100.00;100536.44;6096841;28;20271;-65
2023/08/09 03:07:16;;;;;;;3.17;1.33;;;;;;;10.23;100.00;100524.16;6097726;28;20032;-65
2023/08/09 03:10:12;;;;;;;2.53;1.52;;;;;;;10.23;100.00;100522.34;6105497;28;20028;-65
2023/08/09 03:13:07;;;;;;;3.13;1.48;;;;;;;10.18;100.00;100542.31;6097139;28;20029;-65
2023/08/09 03:16:04;;;;;;;2.90;1.23;;;;;;;10.11;100.00;100542.03;6096703;28;20029;-65
2023/08/09 03:18:59;;;;;;;3.13;1.38;;;;;;;10.08;100.00;100547.66;6097334;28;20159;-65
2023/08/09 03:21:55;;;;;;;3.63;1.73;;;;;;;9.93;100.00;100543.78;6097023;28;20025;-65
2023/08/09 03:24:50;;;;;;;3.63;1.53;;;;;;;9.82;100.00;100546.63;6096643;28;20036;-65
2023/08/09 03:27:46;;;;;;;3.35;1.50;;;;;;;9.82;100.00;100541.34;6100988;28;20074;-65
2023/08/09 03:30:41;;;;;;;4.57;1.77;;;;;;;9.75;100.00;100548.19;6097309;28;20440;-65
2023/08/09 03:33:36;;;;;;;3.90;1.70;;;;;;;9.74;100.00;100555.31;6096445;28;20263;-65
2023/08/09 03:36:32;;;;;;;5.28;1.88;;;;;;;9.69;100.00;100546.97;6096261;28;20275;-65
2023/08/09 03:39:27;;;;;;;6.70;2.07;;;;;;;9.83;100.00;100569.50;6096775;28;20503;-65
2023/08/09 03:42:22;;;;;;;4.57;1.80;;;;;;;9.80;100.00;100567.13;6097197;28;20303;-65
2023/08/09 03:45:18;;;;;;;3.30;1.73;;;;;;;9.71;100.00;100565.34;6101013;28;20025;-65
2023/08/09 03:48:13;;;;;;;3.63;1.73;;;;;;;9.75;100.00;100561.44;6108842;28;20369;-65
2023/08/09 03:51:09;;;;;;;4.28;1.73;;;;;;;9.77;100.00;100570.06;6106699;28;20357;-65
2023/08/09 03:54:05;;;;;;;3.53;1.63;;;;;;;9.85;100.00;100572.81;6100633;28;20037;-65
2023/08/09 03:57:01;;;;;;;4.25;1.85;;;;;;;9.86;100.00;100580.66;6100972;28;21136;-65
2023/08/09 03:59:56;;;;;;;4.25;1.55;;;;;;;10.01;100.00;100592.41;6101508;28;20098;-65
2023/08/09 04:02:52;;;;;;;3.35;1.65;;;;;;;9.87;100.00;100576.16;6100970;28;20069;-65
2023/08/09 04:05:47;;;;;;;5.32;2.20;;;;;;;9.95;100.00;100600.09;6100620;28;20052;-65
2023/08/09 04:08:42;;;;;;;3.50;2.00;;;;;;;9.93;100.00;100588.81;6101404;28;20063;-65
2023/08/09 04:11:37;;;;;;;4.33;1.83;;;;;;;10.07;100.00;100607.75;6100795;28;20048;-65
2023/08/09 04:14:33;;;;;;;4.73;1.90;;;;;;;10.00;100.00;100592.59;6100438;28;20041;-65
2023/08/09 04:17:28;;;;;;;6.13;2.17;;;;;;;10.18;100.00;100611.22;6101103;28;20533;-65
2023/08/09 04:20:24;;;;;;;3.63;1.67;;;;;;;10.06;100.00;100587.53;6101380;28;20271;-65
2023/08/09 04:23:20;;;;;;;3.78;2.10;;;;;;;10.27;100.00;100616.50;6100228;28;20287;-65
2023/08/09 04:26:15;;;;;;;5.55;2.15;;;;;;;10.27;100.00;100600.59;6100413;28;20376;-65
2023/08/09 04:29:11;;;;;;;7.17;2.00;;;;;;;10.45;100.00;100598.81;6103302;28;20037;-65
2023/08/09 04:32:07;;;;;;;4.35;1.83;;;;;;;10.61;100.00;100596.34;6100339;28;20061;-65
2023/08/09 04:35:02;;;;;;;5.10;2.10;;;;;;;10.96;100.00;100623.88;6099852;28;20024;-65
2023/08/09 04:37:58;;;;;;;3.53;1.73;;;;;;;11.04;100.00;100619.50;6100045;28;20031;-65
2023/08/09 04:40:53;;;;;;;3.13;1.90;;;;;;;10.99;100.00;100607.66;6100078;28;20058;-65
2023/08/09 04:43:49;;;;;;;5.10;2.40;;;;;;;11.17;100.00;100627.91;6099710;28;20768;-65
2023/08/09 04:46:44;;;;;;;4.20;1.83;;;;;;;11.39;100.00;100626.59;6100052;28;20341;-65
2023/08/09 04:49:40;;;;;;;3.40;2.07;;;;;;;11.51;100.00;100622.72;6100474;28;20033;-66
2023/08/09 04:52:36;;;;;;;8.18;2.03;;;;;;;11.49;100.00;100627.38;6100125;28;20025;-65
2023/08/09 04:55:32;;;;;;;4.70;1.92;;;;;;;11.57;100.00;100630.09;6098379;28;20063;-65
2023/08/09 04:58:27;;;;;;;3.67;2.07;;;;;;;11.69;100.00;100628.03;6107363;28;20024;-65
2023/08/09 05:01:22;;;;;;;3.58;1.77;;;;;;;11.69;100.00;100623.56;6100983;28;20476;-65
2023/08/09 05:04:18;;;;;;;4.20;1.80;;;;;;;11.56;100.00;100615.13;6099265;28;20032;-65
2023/08/09 05:07:13;;;;;;;5.10;2.10;;;;;;;11.65;100.00;100630.16;6099645;28;20033;-65
2023/08/09 05:10:10;;;;;;;8.50;2.30;;;;;;;11.68;100.00;100637.81;6105709;28;20059;-65
2023/08/09 05:13:05;;;;;;;4.20;2.38;;;;;;;11.56;100.00;100622.25;6097806;28;20460;-65
2023/08/09 05:16:00;;;;;;;4.87;2.10;;;;;;;11.60;100.00;100634.25;6098708;28;20036;-65
2023/08/09 05:18:55;;;;;;;5.77;2.20;;;;;;;11.52;100.00;100636.84;6099100;28;20032;-65
2023/08/09 05:21:51;;;;;;;4.67;2.40;;;;;;;11.61;100.00;100643.88;6099464;28;20032;-65
2023/08/09 05:24:46;;;;;;;5.53;2.23;;;;;;;11.56;100.00;100654.97;6101352;28;20279;-65
2023/08/09 05:27:46;;;;;;;8.87;2.77;;;;;;;11.58;100.00;100652.13;6099444;28;20025;-65
2023/08/09 05:30:42;;;;;;;;;;;;;;;11.94;100.00;100665.25;6099570;28;20025;-65
2023/08/09 05:33:37;;;;;;;6.93;2.10;;;;;;;11.88;100.00;100649.09;6098564;28;19916;-66
2023/08/09 05:36:32;;;;;;;6.37;2.00;;;;;;;11.99;100.00;100640.00;6099310;28;20102;-64
2023/08/09 05:39:28;;;;;;;4.20;2.07;;;;;;;12.07;100.00;100648.88;6098589;28;20279;-66
2023/08/09 05:42:23;;;;;;;7.13;2.20;;;;;;;12.34;100.00;100667.31;6099039;28;20021;-64
2023/08/09 05:45:18;;;;;;;6.40;2.10;;;;;;;12.54;100.00;100657.25;6098407;28;20163;-65
2023/08/09 05:48:13;;;;;;;6.47;2.13;;;;;;;13.10;100.00;100649.47;6098818;28;20280;-65
2023/08/09 05:51:09;;;;;;;4.47;2.37;;;;;;;13.19;100.00;100665.47;6098780;28;20029;-65
2023/08/09 05:54:05;;;;;;;3.88;1.83;;;;;;;13.73;100.00;100664.81;6097716;28;20039;-64
2023/08/09 05:57:01;;;;;;;4.33;1.50;;;;;;;13.88;100.00;100654.34;6103976;28;20341;-66
2023/08/09 05:59:56;;;;;;;3.28;1.80;;;;;;;13.92;100.00;100668.97;6098320;28;20277;-65
2023/08/09 06:02:52;;;;;;;3.83;2.13;;;;;;;14.36;100.00;100685.44;6098348;28;20376;-65
2023/08/09 06:05:48;;;;;;;3.13;1.63;;;;;;;14.47;100.00;100666.38;6099429;28;20032;-65
2023/08/09 06:08:43;;;;;;;3.27;1.80;;;;;;;14.70;100.00;100673.44;6098241;28;20036;-65
2023/08/09 06:11:39;;;;;;;5.77;2.13;;;;;;;14.60;100.00;100698.69;6098353;28;20104;-65
2023/08/09 06:14:34;;;;;;;4.20;1.45;;;;;;;14.44;100.00;100678.22;6097493;28;20110;-65
2023/08/09 06:17:29;;;;;;;5.10;1.77;;;;;;;14.80;100.00;100697.28;6098288;28;20025;-65
2023/08/09 06:20:27;;;;;;;5.70;2.20;;;;;;;14.77;100.00;100695.78;6098402;28;20033;-65
2023/08/09 06:23:23;;;;;;;4.68;1.90;;;;;;;14.62;100.00;100686.84;6097472;28;20375;-65
2023/08/09 06:26:18;;;;;;;5.63;2.35;;;;;;;14.86;100.00;100699.25;6108115;28;20107;-66
2023/08/09 06:29:14;;;;;;;6.03;2.00;;;;;;;14.92;100.00;100708.41;6097872;28;20035;-65
2023/08/09 06:32:09;;;;;;;7.40;2.10;;;;;;;14.86;100.00;100685.91;6098067;28;20318;-65
2023/08/09 06:35:05;;;;;;;4.67;1.77;;;;;;;15.06;100.00;100716.50;6097303;28;20418;-65
2023/08/09 06:38:01;;;;;;;4.50;1.77;;;;;;;15.03;100.00;100710.72;6095778;28;20071;-65
2023/08/09 06:40:56;;;;;;;7.28;2.08;;;;;;;14.87;100.00;100708.91;6097779;28;20017;-65
2023/08/09 06:43:52;;;;;;;2.97;1.60;;;;;;;15.00;100.00;100700.38;6097012;28;20024;-65
2023/08/09 06:46:47;;;;;;;6.10;1.70;;;;;;;15.18;100.00;100704.44;6093724;28;20028;-65
2023/08/09 06:49:42;;;;;;;4.83;1.60;;;;;;;15.84;97.66;100705.66;6094627;28;21737;-65
2023/08/09 06:52:38;;;;;;;4.80;1.73;;;;;;;16.03;96.87;100710.53;6089745;28;20286;-65
2023/08/09 06:55:33;;;;;;;3.07;1.30;;;;;;;15.84;97.68;100714.53;6097499;28;20040;-65
2023/08/09 06:58:29;;;;;;;3.47;1.60;;;;;;;15.91;96.32;100736.03;6096193;28;20587;-65
2023/08/09 07:01:24;;;;;;;9.40;1.53;;;;;;;16.05;94.22;100728.03;6096261;28;20024;-65
2023/08/09 07:04:19;;;;;;;6.97;1.70;;;;;;;16.06;92.30;100743.06;6095594;28;20028;-65
2023/08/09 07:07:15;;;;;;;5.83;1.30;;;;;;;16.10;91.89;100732.84;6096779;28;20090;-65
2023/08/09 07:10:11;;;;;;;4.33;1.33;;;;;;;16.30;94.04;100739.34;6097178;28;20086;-65
2023/08/09 07:13:07;;;;;;;4.32;1.33;;;;;;;16.42;91.44;100748.59;6097144;28;20036;-65
2023/08/09 07:16:02;;;;;;;5.63;1.10;;;;;;;16.33;90.43;100743.50;6096834;28;20051;-65
2023/08/09 07:18:57;;;;;;;4.70;1.20;;;;;;;16.24;89.22;100740.06;6100109;28;20291;-64
2023/08/09 07:21:52;;;;;;;4.43;1.40;;;;;;;16.80;88.88;100753.88;6102233;28;20020;-65
2023/08/09 07:24:48;;;;;;;2.23;0.90;;;;;;;16.13;87.35;100743.19;6101497;28;20037;-65
2023/08/09 07:27:44;;;;;;;4.17;1.27;;;;;;;16.13;88.81;100761.91;6110492;28;20075;-65
2023/08/09 07:30:40;;;;;;;4.45;1.20;;;;;;;16.24;87.67;100771.34;6102074;28;20483;-65
2023/08/09 07:33:35;;;;;;;3.70;1.33;;;;;;;16.30;85.89;100776.81;6101102;28;20064;-65
2023/08/09 07:36:31;;;;;;;3.93;1.23;;;;;;;16.20;86.35;100760.16;6101955;28;20472;-65
2023/08/09 07:39:26;;;;;;;3.27;1.10;;;;;;;16.62;85.81;100771.19;6105916;28;20098;-65
2023/08/09 07:42:21;;;;;;;3.37;1.17;;;;;;;16.65;84.41;100764.63;6101484;28;20035;-65
2023/08/09 07:45:17;;;;;;;4.17;1.27;;;;;;;16.17;82.35;100773.91;6101365;28;20259;-65
2023/08/09 07:48:12;;;;;;;6.60;1.63;;;;;;;16.31;85.59;100773.13;6101185;28;20280;-65
2023/08/09 07:51:11;;;;;;;5.17;1.43;;;;;;;16.75;84.41;100791.13;6101485;28;20021;-65
2023/08/09 07:54:07;;;;;;;5.50;1.52;;;;;;;17.07;80.34;100786.22;6101155;28;20143;-65
2023/08/09 07:57:03;;;;;;;6.40;1.25;;;;;;;17.38;80.89;100796.72;6107489;28;20187;-65
2023/08/09 07:59:58;;;;;;;6.15;1.10;;;;;;;17.28;78.53;100785.47;6102029;28;20051;-65
2023/08/09 08:02:53;;;;;;;2.10;0.90;;;;;;;16.74;78.88;100789.47;6100943;28;20353;-66
2023/08/09 08:05:49;;;;;;;2.90;0.97;;;;;;;17.06;77.01;100783.72;6106005;28;20271;-65
2023/08/09 08:08:45;;;;;;;3.38;1.00;;;;;;;17.13;77.65;100784.63;6107532;28;20762;-65
2023/08/09 08:11:40;;;;;;;5.35;1.33;;;;;;;17.13;77.23;100803.41;6100747;28;20029;-65
2023/08/09 08:14:37;;;;;;;2.38;1.00;;;;;;;17.24;77.81;100787.69;6096731;28;20037;-65
2023/08/09 08:17:33;;;;;;;5.97;1.10;;;;;;;17.66;76.25;100802.22;6100617;28;20040;-65
2023/08/09 08:20:28;;;;;;;3.58;0.80;;;;;;;17.85;72.70;100793.56;6100851;28;20057;-66
2023/08/09 08:23:23;;;;;;;3.13;1.07;;;;;;;18.16;71.64;100803.94;6099906;28;20032;-66
2023/08/09 08:26:19;;;;;;;8.38;0.98;;;;;;;18.02;70.19;100791.47;6107944;28;20021;-66
2023/08/09 08:29:14;;;;;;;3.83;1.07;;;;;;;18.04;69.99;100802.81;6099506;28;20414;-64
2023/08/09 08:32:10;;;;;;;3.70;0.90;;;;;;;18.22;71.42;100797.81;6100385;28;20079;-66
2023/08/09 08:35:11;;;;;;;6.13;1.10;;;;;;;18.48;68.95;100811.47;6099909;28;20028;-66
2023/08/09 08:38:06;;;;;;;4.10;1.23;;;;;;;18.23;70.15;100804.88;6099641;28;20029;-66
2023/08/09 08:41:02;;;;;;;4.30;1.20;;;;;;;18.31;68.80;100802.03;6100490;28;20036;-65
2023/08/09 08:43:57;;;;;;;2.20;0.90;;;;;;;18.26;67.03;100821.41;6099916;28;20349;-66
2023/08/09 08:46:53;;;;;;;4.47;0.80;;;;;;;18.37;67.41;100818.19;6100026;28;20083;-66
2023/08/09 08:49:50;;;;;;;4.75;1.02;;;;;;;18.18;68.71;100836.84;6099955;28;20024;-66
2023/08/09 08:52:47;;;;;;;1.60;0.80;;;;;;;17.94;69.82;100818.44;6098551;28;20036;-65
2023/08/09 08:55:42;;;;;;;5.53;1.05;;;;;;;18.07;68.53;100837.34;6099922;28;20032;-65
2023/08/09 08:58:38;;;;;;;3.63;1.07;;;;;;;18.17;68.55;100836.00;6098573;28;20404;-65
2023/08/09 09:01:33;;;;;;;5.40;1.05;;;;;;;18.52;71.16;100834.25;6099615;28;20376;-65
2023/08/09 09:04:28;;;;;;;2.37;0.87;;;;;;;19.09;65.97;100833.19;6104824;28;20032;-65
2023/08/09 09:07:25;;;;;;;3.77;0.97;;;;;;;19.41;65.42;100835.25;6102740;28;20090;-65
2023/08/09 09:10:20;;;;;;;2.33;0.90;;;;;;;19.77;64.50;100826.88;6102088;28;20032;-65
2023/08/09 09:13:26;;;;;;;3.73;0.90;;;;;;;19.42;63.19;100835.06;6099144;28;20032;-66
2023/08/09 09:16:22;;;;;;;8.52;1.02;;;;;;;18.79;65.04;100841.50;6099708;28;20362;-65
2023/08/09 09:19:17;;;;;;;5.70;1.33;;;;;;;18.59;65.09;100823.56;6099576;28;20537;-65
2023/08/09 09:22:34;;;;;;;3.87;0.90;;;;;;;18.39;68.15;100836.81;6099234;28;20047;-65
2023/08/09 09:25:29;;;;;;;6.03;0.80;;;;;;;18.72;63.30;100832.56;6104928;28;20105;-65
2023/08/09 09:28:24;;;;;;;6.23;1.30;;;;;;;19.14;60.80;100834.25;6099143;28;20028;-65
2023/08/09 09:31:20;;;;;;;3.03;0.83;;;;;;;18.57;61.93;100828.28;6099318;28;20101;-65
2023/08/09 09:34:15;;;;;;;3.58;0.88;;;;;;;18.59;65.54;100832.44;6098492;28;20364;-65
2023/08/09 09:37:15;;;;;;;2.47;0.90;;;;;;;18.84;60.38;100825.59;6098630;28;20029;-65
2023/08/09 09:40:11;;;;;;;6.03;1.00;;;;;;;19.47;60.95;100837.97;6098120;28;20013;-64
2023/08/09 09:43:07;;;;;;;2.63;0.90;;;;;;;19.55;60.31;100845.88;6098568;28;20118;-66
2023/08/09 09:46:02;;;;;;;2.67;0.80;;;;;;;19.61;60.28;100833.47;6098847;28;20036;-64
2023/08/09 09:49:03;;;;;;;2.75;0.80;;;;;;;19.83;59.04;100831.47;6098608;28;20033;-65
2023/08/09 09:51:58;;;;;;;2.80;0.75;;;;;;;20.04;55.83;100829.44;6099018;28;20029;-66
2023/08/09 09:54:56;;;;;;;1.35;0.68;;;;;;;19.76;55.49;100819.88;6105920;28;20025;-65
2023/08/09 09:57:53;;;;;;;4.47;0.75;;;;;;;20.25;55.74;100819.56;6101258;28;20369;-65
2023/08/09 10:00:53;;;;;;;0.88;0.60;;;;;;;21.03;52.94;100819.50;6098709;28;20108;-66
2023/08/09 10:03:49;;;;;;;1.77;0.90;;;;;;;21.15;53.03;100815.13;6096481;28;20032;-65
2023/08/09 10:06:46;;;;;;;3.22;1.00;;;;;;;21.18;53.65;100817.41;6103927;28;20083;-65
2023/08/09 10:09:41;;;;;;;3.60;0.95;;;;;;;20.51;52.78;100819.56;6096938;28;20028;-66
2023/08/09 10:12:38;;;;;;;5.20;1.00;;;;;;;20.05;56.02;100835.66;6098242;28;20348;-65
2023/08/09 10:15:43;;;;;;;4.47;0.93;;;;;;;20.55;54.92;100821.63;6103933;28;20040;-65
2023/08/09 10:18:44;;;;;;;2.97;0.80;;;;;;;20.51;52.54;100833.03;6097727;28;20024;-65
2023/08/09 10:21:40;;;;;;;1.88;0.60;;;;;;;20.89;52.70;100839.44;6096987;28;20111;-66
2023/08/09 10:24:43;;;;;;;2.92;1.17;;;;;;;20.58;51.84;100840.06;6118399;28;20028;-65
2023/08/09 10:27:53;;;;;;;2.33;0.85;;;;;;;20.90;52.35;100830.28;6099367;28;20475;-65
2023/08/09 10:30:50;;;;;;;4.53;0.93;;;;;;;21.09;52.29;100832.13;6106396;28;20033;-66
2023/08/09 10:34:07;;;;;;;1.88;0.70;;;;;;;20.95;51.55;100854.78;6097337;28;20025;-66
2023/08/09 10:37:04;;;;;;;2.40;0.70;;;;;;;20.42;53.92;100858.53;6098855;28;20791;-66
2023/08/09 10:40:16;;;;;;;3.80;0.82;;;;;;;20.17;54.00;100844.78;6094798;28;20029;-65
2023/08/09 10:43:20;;;;;;;3.45;0.90;;;;;;;20.53;54.21;100849.81;6097601;28;20392;-66
2023/08/09 10:46:22;;;;;;;2.15;0.70;;;;;;;19.86;53.29;100863.38;6098064;28;20476;-66
2023/08/09 10:49:17;;;;;;;1.45;0.60;;;;;;;19.33;54.61;100856.91;6096137;28;20107;-65
2023/08/09 10:52:17;;;;;;;2.93;0.70;;;;;;;19.50;54.96;100859.09;6097127;28;20380;-66
2023/08/09 10:55:24;;;;;;;;;;;;;;;20.16;54.34;100860.09;6107742;28;20024;-65
2023/08/09 10:58:25;;;;;;;1.23;0.50;;;;;;;20.17;50.18;100845.63;6097748;28;19948;-65
2023/08/09 11:01:25;;;;;;;1.83;0.60;;;;;;;20.44;48.38;100861.81;6097458;28;20025;-65
2023/08/09 11:04:20;;;;;;;2.17;0.88;;;;;;;20.91;49.72;100845.44;6099509;28;20031;-65
2023/08/09 11:07:19;;;;;;;1.90;0.70;;;;;;;21.13;49.14;100859.53;6103041;28;20073;-67
2023/08/09 11:10:18;;;;;;;2.30;0.75;;;;;;;20.39;48.55;100848.97;6097242;28;20024;-66
2023/08/09 11:13:16;;;;;;;3.97;0.82;;;;;;;20.40;50.92;100871.38;6097443;28;20093;-65
2023/08/09 11:16:14;;;;;;;1.40;0.85;;;;;;;20.66;51.59;100861.44;6093419;28;20357;-66
2023/08/09 11:19:12;;;;;;;4.30;0.90;;;;;;;20.92;50.65;100865.97;6097124;28;20041;-65
2023/08/09 11:22:09;;;;;;;2.00;1.00;;;;;;;20.98;48.79;100862.41;6097386;28;20033;-66
2023/08/09 11:25:06;;;;;;;3.08;0.90;;;;;;;20.90;47.06;100868.03;6096569;28;20086;-66
2023/08/09 11:28:04;;;;;;;3.13;0.70;;;;;;;20.62;49.59;100864.75;6097388;28;20033;-66
2023/08/09 11:30:59;;;;;;;3.42;0.90;;;;;;;20.72;48.26;100859.75;6097058;28;20032;-66
2023/08/09 11:33:59;;;;;;;1.67;0.73;;;;;;;20.52;47.79;100864.34;6096721;28;20053;-66
2023/08/09 11:36:55;;;;;;;5.47;0.88;;;;;;;20.42;50.32;100880.06;6097485;28;20275;-65
2023/08/09 11:39:51;;;;;;;1.50;0.80;;;;;;;20.46;48.84;100871.38;6096559;28;20037;-65
2023/08/09 11:42:46;;;;;;;2.33;0.73;;;;;;;20.53;48.62;100857.91;6095837;28;20032;-66
2023/08/09 11:45:50;;;;;;;3.90;1.02;;;;;;;20.57;48.50;100875.34;6095605;28;20292;-66
2023/08/09 11:48:45;;;;;;;2.90;0.70;;;;;;;20.16;49.68;100873.56;6088152;28;20032;-66
2023/08/09 11:51:42;;;;;;;3.87;0.87;;;;;;;20.03;50.92;100873.56;6097027;28;20053;-66
2023/08/09 11:54:37;;;;;;;4.68;0.68;;;;;;;20.41;49.02;100875.75;6100055;28;20111;-66
2023/08/09 11:57:32;;;;;;;1.47;0.63;;;;;;;20.81;47.44;100884.66;6101210;28;20037;-66
2023/08/09 12:00:28;;;;;;;4.70;0.80;;;;;;;20.73;48.45;100872.22;6096533;28;20384;-66
2023/08/09 12:03:23;;;;;;;3.50;0.87;;;;;;;20.83;47.70;100886.09;6097050;28;20345;-66
2023/08/09 12:06:33;;;;;;;4.60;0.83;;;;;;;20.88;45.67;100874.69;6108103;28;20464;-65
2023/08/09 12:09:36;;;;;;;1.55;0.50;;;;;;;21.03;46.54;100889.63;6101049;28;20056;-65
2023/08/09 12:12:38;;;;;;;3.05;0.90;;;;;;;21.18;46.40;100903.72;6100922;28;20068;-66
2023/08/09 12:15:34;;;;;;;3.83;1.02;;;;;;;21.56;45.72;100895.72;6100755;28;20044;-66
2023/08/09 12:18:29;;;;;;;1.48;0.70;;;;;;;21.68;45.31;100904.00;6100761;28;20029;-66
2023/08/09 12:21:25;;;;;;;3.22;0.75;;;;;;;21.49;44.13;100902.19;6100762;28;20044;-67
2023/08/09 12:24:20;;;;;;;1.97;0.70;;;;;;;21.49;46.59;100899.50;6101218;28;20520;-65
2023/08/09 12:27:15;;;;;;;5.07;0.67;;;;;;;21.35;46.13;100891.44;6102087;28;20024;-65
2023/08/09 12:30:11;;;;;;;2.92;0.80;;;;;;;21.75;44.45;100883.19;6100823;28;20031;-66
2023/08/09 12:33:08;;;;;;;1.13;0.50;;;;;;;21.77;43.76;100897.28;6100553;28;20080;-66
2023/08/09 12:36:03;;;;;;;1.40;0.60;;;;;;;21.49;44.92;100886.00;6099813;28;20036;-66
2023/08/09 12:38:59;;;;;;;1.80;0.90;;;;;;;21.68;44.07;100894.03;6096962;28;20021;-66
2023/08/09 12:41:55;;;;;;;1.37;0.70;;;;;;;21.78;44.88;100901.66;6098520;28;20032;-65
2023/08/09 12:44:50;;;;;;;1.75;0.68;;;;;;;21.71;43.92;100908.97;6099791;28;20616;-66
2023/08/09 12:47:46;;;;;;;2.27;0.70;;;;;;;21.40;46.40;100901.59;6106884;28;20060;-66
2023/08/09 12:50:41;;;;;;;1.13;0.60;;;;;;;21.29;44.69;100921.97;6099960;28;20040;-66
2023/08/09 12:53:37;;;;;;;2.87;0.87;;;;;;;20.78;46.65;100902.06;6099633;28;20028;-66
2023/08/09 12:56:32;;;;;;;2.60;0.70;;;;;;;21.30;47.53;100907.44;6099853;28;20025;-66
2023/08/09 12:59:27;;;;;;;4.07;0.80;;;;;;;21.80;44.85;100907.66;6102091;28;20286;-65
2023/08/09 13:02:23;;;;;;;7.33;0.70;;;;;;;21.83;44.15;100913.47;6107323;28;20098;-66
2023/08/09 13:05:18;;;;;;;1.07;0.60;;;;;;;21.07;43.60;100920.53;6098962;28;20115;-66
2023/08/09 13:08:14;;;;;;;2.80;0.82;;;;;;;21.27;46.28;100912.41;6099869;28;20348;-67
2023/08/09 13:11:09;;;;;;;1.00;0.60;;;;;;;21.56;43.69;100927.28;6099535;28;20037;-66
2023/08/09 13:14:05;;;;;;;1.95;1.00;;;;;;;21.95;40.96;100902.88;6099167;28;20029;-66
2023/08/09 13:17:00;;;;;;;1.45;0.73;;;;;;;22.09;41.04;100911.72;6098934;28;20029;-65
2023/08/09 13:19:56;;;;;;;1.13;0.60;;;;;;;21.23;42.52;100922.78;6100366;28;20053;-66
2023/08/09 13:22:51;;;;;;;2.77;0.70;;;;;;;21.20;43.71;100920.50;6099376;28;20039;-66
2023/08/09 13:25:46;;;;;;;1.20;0.57;;;;;;;21.65;41.84;100915.22;6098619;28;20651;-66
2023/08/09 13:28:42;;;;;;;0.87;0.67;;;;;;;22.36;42.99;100903.25;6099416;28;20117;-66
2023/08/09 13:31:37;;;;;;;2.97;0.80;;;;;;;22.60;40.52;100908.91;6099222;28;20036;-66
2023/08/09 13:34:32;;;;;;;1.55;0.70;;;;;;;22.67;40.67;100909.69;6100447;28;20136;-67
2023/08/09 13:37:29;;;;;;;1.10;0.50;;;;;;;22.47;39.97;100907.97;6098957;28;20132;-66